MMX weather

Malmö Sturup Airport
Malmö, Skåne län, Sweden

Public forecast

Using degrees Celsius for public forecast. Weather courtesy of forecast.io.

Current aviation weather report (METAR) for Malmö Sturup Airport

Retrieved 2020/06/06 14:20 UTC (18 minutes ago):

ESMS 061420Z 23021KT 9999 FEW029 SCT051 14/06 Q0999

Aviation forecast (TAF) for Malmö Sturup Airport

Retrieved 2020/06/06 12:00 UTC (3 hours ago):

TAF ESMS 061109Z 0612/0712 22015KT 9999 BKN030 TEMPO 0612/0618 23020G30KT SHRA SCT020CB TEMPO 0618/0624 SCT020CB BECMG 0618/0620 18005KT